Iberia, Ohio
Current Conditions -  °F | °C
As of 3:53 AM on Saturday 25 Oct 2014 (Local Time) from KMNN Reporting Station
Haze Haze  
Wind Chill:   Ceiling: Unl
Heat Index:   Visibility: 6mi
Dew Point:   Wind: 6mph
Humidity: 77%   Direction: 220°SW
Pressure: 29.98"   Gusts: NA
Location:  40.67°N, 82.84°W
Report Text: KMNN 250753Z AUTO 22005KT 6SM HZ CLR 09/05 A2998 RMK AO2 SLP152 T00890050 TSNO $
Loading
Personal Weather Stations






























Interactive Weather Map
Tropical Storm Tracking
New forecast layout! Learn more

10-Day Weather Forecast

Advertisements
Track Severe Weather on mobile